sensor_id;sensor_type;location;lat;lon;timestamp;pressure;altitude;pressure_sealevel;temperature;humidity
7376;BME280;3728;42.266;24.944;2023-03-22T00:02:05;99209.78;;;13.11;99.15
7376;BME280;3728;42.266;24.944;2023-03-22T00:04:33;99209.63;;;13.28;99.49
7376;BME280;3728;42.266;24.944;2023-03-22T00:07:00;99210.25;;;13.25;99.57
7376;BME280;3728;42.266;24.944;2023-03-22T00:09:28;99213.28;;;13.15;99.30
7376;BME280;3728;42.266;24.944;2023-03-22T00:11:58;99213.31;;;13.27;98.71
7376;BME280;3728;42.266;24.944;2023-03-22T00:14:26;99201.75;;;12.86;100.00
7376;BME280;3728;42.266;24.944;2023-03-22T00:16:54;99214.16;;;13.07;100.00
7376;BME280;3728;42.266;24.944;2023-03-22T00:19:22;99217.97;;;12.68;100.00
7376;BME280;3728;42.266;24.944;2023-03-22T00:21:49;99222.44;;;12.67;100.00
7376;BME280;3728;42.266;24.944;2023-03-22T00:24:17;99214.66;;;12.59;100.00
7376;BME280;3728;42.266;24.944;2023-03-22T00:26:46;99216.06;;;12.56;100.00
7376;BME280;3728;42.266;24.944;2023-03-22T00:29:14;99205.72;;;12.51;100.00
7376;BME280;3728;42.266;24.944;2023-03-22T00:31:41;99205.63;;;12.48;100.00
7376;BME280;3728;42.266;24.944;2023-03-22T00:34:09;99204.41;;;12.66;100.00
7376;BME280;3728;42.266;24.944;2023-03-22T00:36:38;99201.94;;;12.81;100.00
7376;BME280;3728;42.266;24.944;2023-03-22T00:39:06;99200.09;;;12.61;100.00
7376;BME280;3728;42.266;24.944;2023-03-22T00:41:34;99208.06;;;12.53;100.00
7376;BME280;3728;42.266;24.944;2023-03-22T00:44:01;99203.19;;;12.63;100.00
7376;BME280;3728;42.266;24.944;2023-03-22T00:46:29;99204.50;;;13.11;99.93
7376;BME280;3728;42.266;24.944;2023-03-22T00:48:56;99206.84;;;12.71;100.00
7376;BME280;3728;42.266;24.944;2023-03-22T00:51:24;99205.16;;;12.66;100.00
7376;BME280;3728;42.266;24.944;2023-03-22T00:53:52;99201.13;;;12.89;99.53
7376;BME280;3728;42.266;24.944;2023-03-22T00:56:23;99201.19;;;12.60;100.00
7376;BME280;3728;42.266;24.944;2023-03-22T00:59:00;99195.63;;;12.62;100.00
7376;BME280;3728;42.266;24.944;2023-03-22T01:01:28;99193.50;;;12.55;100.00
7376;BME280;3728;42.266;24.944;2023-03-22T01:03:56;99199.50;;;12.56;100.00
7376;BME280;3728;42.266;24.944;2023-03-22T01:06:24;99198.88;;;12.59;100.00
7376;BME280;3728;42.266;24.944;2023-03-22T01:08:51;99195.94;;;12.60;100.00
7376;BME280;3728;42.266;24.944;2023-03-22T01:11:20;99194.00;;;13.11;97.97
7376;BME280;3728;42.266;24.944;2023-03-22T01:13:48;99201.25;;;13.14;96.62
7376;BME280;3728;42.266;24.944;2023-03-22T01:16:17;99202.38;;;13.04;95.95
7376;BME280;3728;42.266;24.944;2023-03-22T01:18:46;99212.16;;;12.62;100.00
7376;BME280;3728;42.266;24.944;2023-03-22T01:21:13;99214.75;;;13.24;96.57
7376;BME280;3728;42.266;24.944;2023-03-22T01:23:41;99203.44;;;13.12;96.46
7376;BME280;3728;42.266;24.944;2023-03-22T01:26:09;99203.09;;;12.51;98.77
7376;BME280;3728;42.266;24.944;2023-03-22T01:28:36;99200.44;;;12.80;98.73
7376;BME280;3728;42.266;24.944;2023-03-22T01:31:06;99207.97;;;12.61;98.70
7376;BME280;3728;42.266;24.944;2023-03-22T01:33:33;99205.38;;;12.32;100.00
7376;BME280;3728;42.266;24.944;2023-03-22T01:36:02;99199.22;;;11.99;100.00
7376;BME280;3728;42.266;24.944;2023-03-22T01:41:00;99195.44;;;11.88;100.00
7376;BME280;3728;42.266;24.944;2023-03-22T01:43:30;99183.88;;;11.80;100.00
7376;BME280;3728;42.266;24.944;2023-03-22T01:45:58;99195.34;;;12.05;100.00
7376;BME280;3728;42.266;24.944;2023-03-22T01:48:34;99191.56;;;11.85;100.00
7376;BME280;3728;42.266;24.944;2023-03-22T01:51:21;99197.03;;;11.72;100.00
7376;BME280;3728;42.266;24.944;2023-03-22T01:54:17;99201.91;;;11.90;100.00
7376;BME280;3728;42.266;24.944;2023-03-22T01:57:16;99206.25;;;11.86;100.00
7376;BME280;3728;42.266;24.944;2023-03-22T01:59:45;99205.91;;;11.88;100.00
7376;BME280;3728;42.266;24.944;2023-03-22T02:02:42;99208.72;;;11.83;100.00
7376;BME280;3728;42.266;24.944;2023-03-22T02:05:20;99200.00;;;11.99;100.00
7376;BME280;3728;42.266;24.944;2023-03-22T02:07:49;99204.88;;;11.80;100.00
7376;BME280;3728;42.266;24.944;2023-03-22T02:10:21;99204.78;;;11.68;100.00
7376;BME280;3728;42.266;24.944;2023-03-22T02:18:58;99209.28;;;11.97;100.00
7376;BME280;3728;42.266;24.944;2023-03-22T02:22:08;99208.59;;;12.08;100.00
7376;BME280;3728;42.266;24.944;2023-03-22T02:31:12;99213.78;;;11.88;100.00
7376;BME280;3728;42.266;24.944;2023-03-22T02:46:43;99231.22;;;11.92;100.00
7376;BME280;3728;42.266;24.944;2023-03-22T02:52:37;99226.09;;;11.41;100.00
7376;BME280;3728;42.266;24.944;2023-03-22T02:55:23;99221.66;;;11.33;100.00
7376;BME280;3728;42.266;24.944;2023-03-22T02:58:03;99221.63;;;11.41;100.00
7376;BME280;3728;42.266;24.944;2023-03-22T03:00:39;99226.56;;;11.51;100.00
7376;BME280;3728;42.266;24.944;2023-03-22T03:03:10;99215.59;;;11.49;100.00
7376;BME280;3728;42.266;24.944;2023-03-22T03:05:47;99222.53;;;11.54;100.00
7376;BME280;3728;42.266;24.944;2023-03-22T03:08:21;99231.03;;;11.51;100.00
7376;BME280;3728;42.266;24.944;2023-03-22T03:10:51;99236.44;;;11.37;100.00
7376;BME280;3728;42.266;24.944;2023-03-22T03:13:20;99228.44;;;11.34;100.00
7376;BME280;3728;42.266;24.944;2023-03-22T03:15:51;99234.41;;;11.43;100.00
7376;BME280;3728;42.266;24.944;2023-03-22T03:21:28;99234.41;;;11.51;100.00
7376;BME280;3728;42.266;24.944;2023-03-22T03:24:10;99234.72;;;11.58;100.00
7376;BME280;3728;42.266;24.944;2023-03-22T03:27:03;99231.00;;;11.59;100.00
7376;BME280;3728;42.266;24.944;2023-03-22T03:32:47;99236.84;;;11.56;100.00
7376;BME280;3728;42.266;24.944;2023-03-22T03:35:26;99244.72;;;11.56;100.00
7376;BME280;3728;42.266;24.944;2023-03-22T03:38:24;99247.22;;;11.53;100.00
7376;BME280;3728;42.266;24.944;2023-03-22T03:41:00;99247.38;;;11.48;100.00
7376;BME280;3728;42.266;24.944;2023-03-22T03:43:33;99242.28;;;11.43;100.00
7376;BME280;3728;42.266;24.944;2023-03-22T03:46:01;99249.84;;;11.44;100.00
7376;BME280;3728;42.266;24.944;2023-03-22T03:48:32;99249.06;;;11.52;100.00
7376;BME280;3728;42.266;24.944;2023-03-22T03:51:02;99244.25;;;11.54;100.00
7376;BME280;3728;42.266;24.944;2023-03-22T03:53:30;99251.06;;;11.55;100.00
7376;BME280;3728;42.266;24.944;2023-03-22T03:55:59;99243.50;;;11.45;100.00
7376;BME280;3728;42.266;24.944;2023-03-22T03:58:34;99248.91;;;11.49;100.00
7376;BME280;3728;42.266;24.944;2023-03-22T04:01:04;99259.56;;;11.44;100.00
7376;BME280;3728;42.266;24.944;2023-03-22T04:03:51;99262.03;;;11.40;100.00
7376;BME280;3728;42.266;24.944;2023-03-22T04:06:27;99261.41;;;11.43;100.00
7376;BME280;3728;42.266;24.944;2023-03-22T04:09:00;99260.97;;;11.33;100.00
7376;BME280;3728;42.266;24.944;2023-03-22T04:11:31;99257.41;;;11.29;100.00
7376;BME280;3728;42.266;24.944;2023-03-22T04:14:01;99266.22;;;11.33;100.00
7376;BME280;3728;42.266;24.944;2023-03-22T04:16:28;99266.22;;;11.33;100.00
7376;BME280;3728;42.266;24.944;2023-03-22T04:18:56;99260.50;;;11.39;100.00
7376;BME280;3728;42.266;24.944;2023-03-22T04:21:23;99269.91;;;11.40;100.00
7376;BME280;3728;42.266;24.944;2023-03-22T04:23:59;99272.06;;;11.47;100.00
7376;BME280;3728;42.266;24.944;2023-03-22T04:26:33;99271.75;;;11.48;100.00
7376;BME280;3728;42.266;24.944;2023-03-22T04:29:17;99275.75;;;11.46;100.00
7376;BME280;3728;42.266;24.944;2023-03-22T04:31:48;99274.69;;;11.38;100.00
7376;BME280;3728;42.266;24.944;2023-03-22T04:34:26;99286.56;;;11.44;100.00
7376;BME280;3728;42.266;24.944;2023-03-22T04:36:57;99273.88;;;11.55;100.00
7376;BME280;3728;42.266;24.944;2023-03-22T04:39:37;99267.41;;;11.70;100.00
7376;BME280;3728;42.266;24.944;2023-03-22T04:42:24;99274.50;;;11.69;100.00
7376;BME280;3728;42.266;24.944;2023-03-22T04:45:04;99267.22;;;11.66;100.00
7376;BME280;3728;42.266;24.944;2023-03-22T04:47:33;99266.34;;;11.53;100.00
7376;BME280;3728;42.266;24.944;2023-03-22T04:50:06;99272.06;;;11.38;100.00
7376;BME280;3728;42.266;24.944;2023-03-22T04:52:42;99259.88;;;11.42;100.00
7376;BME280;3728;42.266;24.944;2023-03-22T04:55:09;99263.91;;;11.14;100.00
7376;BME280;3728;42.266;24.944;2023-03-22T04:57:37;99261.44;;;11.00;100.00
7376;BME280;3728;42.266;24.944;2023-03-22T05:00:06;99265.47;;;11.07;100.00
7376;BME280;3728;42.266;24.944;2023-03-22T05:02:34;99264.69;;;10.89;100.00
7376;BME280;3728;42.266;24.944;2023-03-22T05:05:12;99275.44;;;10.79;100.00
7376;BME280;3728;42.266;24.944;2023-03-22T05:07:39;99274.09;;;10.90;100.00
7376;BME280;3728;42.266;24.944;2023-03-22T05:10:09;99287.03;;;11.12;100.00
7376;BME280;3728;42.266;24.944;2023-03-22T05:12:37;99294.09;;;11.63;100.00
7376;BME280;3728;42.266;24.944;2023-03-22T05:15:25;99292.41;;;11.58;100.00
7376;BME280;3728;42.266;24.944;2023-03-22T05:17:56;99297.34;;;11.68;100.00
7376;BME280;3728;42.266;24.944;2023-03-22T05:20:25;99296.75;;;11.37;100.00
7376;BME280;3728;42.266;24.944;2023-03-22T05:23:14;99296.91;;;11.07;100.00
7376;BME280;3728;42.266;24.944;2023-03-22T05:25:53;99303.09;;;11.28;100.00
7376;BME280;3728;42.266;24.944;2023-03-22T05:28:24;99311.56;;;11.42;100.00
7376;BME280;3728;42.266;24.944;2023-03-22T05:31:16;99308.22;;;12.05;100.00
7376;BME280;3728;42.266;24.944;2023-03-22T05:33:55;99309.94;;;11.92;100.00
7376;BME280;3728;42.266;24.944;2023-03-22T05:36:26;99314.91;;;11.94;100.00
7376;BME280;3728;42.266;24.944;2023-03-22T05:39:27;99305.03;;;11.65;100.00
7376;BME280;3728;42.266;24.944;2023-03-22T05:41:56;99306.13;;;11.21;100.00
7376;BME280;3728;42.266;24.944;2023-03-22T05:44:24;99314.94;;;11.17;100.00
7376;BME280;3728;42.266;24.944;2023-03-22T05:47:04;99325.38;;;10.74;100.00
7376;BME280;3728;42.266;24.944;2023-03-22T05:49:39;99346.28;;;10.65;100.00
7376;BME280;3728;42.266;24.944;2023-03-22T05:52:07;99348.19;;;10.73;100.00
7376;BME280;3728;42.266;24.944;2023-03-22T05:54:50;99344.22;;;11.10;100.00
7376;BME280;3728;42.266;24.944;2023-03-22T05:57:21;99352.88;;;11.02;100.00
7376;BME280;3728;42.266;24.944;2023-03-22T05:59:48;99356.72;;;11.13;100.00
7376;BME280;3728;42.266;24.944;2023-03-22T06:02:24;99364.44;;;11.18;100.00
7376;BME280;3728;42.266;24.944;2023-03-22T06:04:52;99373.38;;;11.17;100.00
7376;BME280;3728;42.266;24.944;2023-03-22T06:07:20;99376.16;;;11.55;100.00
7376;BME280;3728;42.266;24.944;2023-03-22T06:09:53;99381.88;;;11.48;100.00
7376;BME280;3728;42.266;24.944;2023-03-22T06:12:22;99387.72;;;11.45;100.00
7376;BME280;3728;42.266;24.944;2023-03-22T06:15:13;99392.06;;;11.50;100.00
7376;BME280;3728;42.266;24.944;2023-03-22T06:18:14;99388.50;;;11.54;100.00
7376;BME280;3728;42.266;24.944;2023-03-22T06:20:47;99383.88;;;11.60;100.00
7376;BME280;3728;42.266;24.944;2023-03-22T06:23:19;99382.03;;;11.60;100.00
7376;BME280;3728;42.266;24.944;2023-03-22T06:25:47;99385.50;;;12.33;100.00
7376;BME280;3728;42.266;24.944;2023-03-22T06:28:16;99374.31;;;12.82;100.00
7376;BME280;3728;42.266;24.944;2023-03-22T06:30:52;99379.78;;;12.22;100.00
7376;BME280;3728;42.266;24.944;2023-03-22T06:33:38;99382.63;;;11.66;100.00
7376;BME280;3728;42.266;24.944;2023-03-22T06:36:21;99386.03;;;11.66;100.00
7376;BME280;3728;42.266;24.944;2023-03-22T06:39:11;99376.00;;;11.94;100.00
7376;BME280;3728;42.266;24.944;2023-03-22T06:41:42;99382.94;;;11.99;100.00
7376;BME280;3728;42.266;24.944;2023-03-22T06:44:10;99387.94;;;12.38;100.00
7376;BME280;3728;42.266;24.944;2023-03-22T06:46:49;99394.16;;;12.33;100.00
7376;BME280;3728;42.266;24.944;2023-03-22T06:49:40;99390.75;;;12.33;100.00
7376;BME280;3728;42.266;24.944;2023-03-22T06:52:13;99382.16;;;12.53;100.00
7376;BME280;3728;42.266;24.944;2023-03-22T06:54:41;99381.41;;;11.98;100.00
7376;BME280;3728;42.266;24.944;2023-03-22T06:57:08;99385.88;;;11.97;100.00
7376;BME280;3728;42.266;24.944;2023-03-22T06:59:37;99394.97;;;12.08;100.00
7376;BME280;3728;42.266;24.944;2023-03-22T07:02:05;99401.34;;;11.73;100.00
7376;BME280;3728;42.266;24.944;2023-03-22T07:04:33;99413.06;;;11.58;100.00
7376;BME280;3728;42.266;24.944;2023-03-22T07:07:00;99419.09;;;11.76;100.00
7376;BME280;3728;42.266;24.944;2023-03-22T07:09:28;99427.88;;;11.80;100.00
7376;BME280;3728;42.266;24.944;2023-03-22T07:11:58;99424.81;;;11.87;100.00
7376;BME280;3728;42.266;24.944;2023-03-22T07:14:27;99420.91;;;12.10;100.00
7376;BME280;3728;42.266;24.944;2023-03-22T07:17:12;99421.06;;;12.05;100.00
7376;BME280;3728;42.266;24.944;2023-03-22T07:19:40;99427.69;;;12.11;100.00
7376;BME280;3728;42.266;24.944;2023-03-22T07:22:09;99430.31;;;12.11;100.00
7376;BME280;3728;42.266;24.944;2023-03-22T07:24:37;99426.47;;;12.17;100.00
7376;BME280;3728;42.266;24.944;2023-03-22T07:27:21;99426.31;;;12.22;100.00
7376;BME280;3728;42.266;24.944;2023-03-22T07:29:49;99431.03;;;12.37;100.00
7376;BME280;3728;42.266;24.944;2023-03-22T07:32:17;99431.94;;;12.50;100.00
7376;BME280;3728;42.266;24.944;2023-03-22T07:35:07;99437.47;;;12.57;100.00
7376;BME280;3728;42.266;24.944;2023-03-22T07:37:34;99437.22;;;12.87;100.00
7376;BME280;3728;42.266;24.944;2023-03-22T07:40:08;99432.13;;;12.82;100.00
7376;BME280;3728;42.266;24.944;2023-03-22T07:42:36;99432.56;;;12.84;100.00
7376;BME280;3728;42.266;24.944;2023-03-22T07:45:22;99448.41;;;13.14;100.00
7376;BME280;3728;42.266;24.944;2023-03-22T07:48:08;99456.06;;;12.89;100.00
7376;BME280;3728;42.266;24.944;2023-03-22T07:50:54;99466.22;;;12.99;100.00
7376;BME280;3728;42.266;24.944;2023-03-22T07:53:24;99466.97;;;13.38;100.00
7376;BME280;3728;42.266;24.944;2023-03-22T07:55:53;99456.72;;;13.45;100.00
7376;BME280;3728;42.266;24.944;2023-03-22T07:58:21;99462.94;;;13.40;100.00
7376;BME280;3728;42.266;24.944;2023-03-22T08:00:51;99470.28;;;13.26;100.00
7376;BME280;3728;42.266;24.944;2023-03-22T08:03:37;99463.91;;;13.07;100.00
7376;BME280;3728;42.266;24.944;2023-03-22T08:06:28;99469.53;;;12.79;100.00
7376;BME280;3728;42.266;24.944;2023-03-22T08:08:59;99457.06;;;13.14;100.00
7376;BME280;3728;42.266;24.944;2023-03-22T08:11:27;99459.56;;;12.64;100.00
7376;BME280;3728;42.266;24.944;2023-03-22T08:13:56;99450.53;;;12.82;100.00
7376;BME280;3728;42.266;24.944;2023-03-22T08:16:24;99449.97;;;13.06;100.00
7376;BME280;3728;42.266;24.944;2023-03-22T08:18:53;99442.84;;;13.36;100.00
7376;BME280;3728;42.266;24.944;2023-03-22T08:21:23;99438.44;;;12.90;100.00
7376;BME280;3728;42.266;24.944;2023-03-22T08:23:53;99433.47;;;12.97;100.00
7376;BME280;3728;42.266;24.944;2023-03-22T08:26:27;99436.78;;;12.77;100.00
7376;BME280;3728;42.266;24.944;2023-03-22T08:29:00;99430.28;;;12.74;100.00
7376;BME280;3728;42.266;24.944;2023-03-22T08:31:32;99434.25;;;12.51;100.00
7376;BME280;3728;42.266;24.944;2023-03-22T08:34:01;99433.19;;;12.44;100.00
7376;BME280;3728;42.266;24.944;2023-03-22T08:36:30;99458.81;;;12.55;100.00
7376;BME280;3728;42.266;24.944;2023-03-22T08:39:03;99469.00;;;12.57;100.00
7376;BME280;3728;42.266;24.944;2023-03-22T08:41:50;99469.38;;;12.84;100.00
7376;BME280;3728;42.266;24.944;2023-03-22T08:44:18;99464.16;;;12.76;100.00
7376;BME280;3728;42.266;24.944;2023-03-22T08:46:47;99459.97;;;12.83;100.00
7376;BME280;3728;42.266;24.944;2023-03-22T08:49:15;99453.94;;;13.21;100.00
7376;BME280;3728;42.266;24.944;2023-03-22T08:51:52;99454.91;;;13.37;100.00
7376;BME280;3728;42.266;24.944;2023-03-22T08:54:53;99453.66;;;13.05;100.00
7376;BME280;3728;42.266;24.944;2023-03-22T08:58:00;99459.38;;;13.16;100.00
7376;BME280;3728;42.266;24.944;2023-03-22T09:00:43;99469.94;;;13.57;100.00
7376;BME280;3728;42.266;24.944;2023-03-22T09:03:24;99464.41;;;13.29;100.00
7376;BME280;3728;42.266;24.944;2023-03-22T09:05:52;99460.25;;;13.28;100.00
7376;BME280;3728;42.266;24.944;2023-03-22T09:08:20;99462.44;;;13.18;100.00
7376;BME280;3728;42.266;24.944;2023-03-22T09:10:54;99461.38;;;13.19;100.00
7376;BME280;3728;42.266;24.944;2023-03-22T09:13:22;99465.69;;;13.23;100.00
7376;BME280;3728;42.266;24.944;2023-03-22T09:15:57;99462.34;;;13.35;100.00
7376;BME280;3728;42.266;24.944;2023-03-22T09:18:28;99461.66;;;13.46;100.00
7376;BME280;3728;42.266;24.944;2023-03-22T09:20:59;99455.44;;;13.51;100.00
7376;BME280;3728;42.266;24.944;2023-03-22T09:23:38;99455.97;;;13.65;100.00
7376;BME280;3728;42.266;24.944;2023-03-22T09:26:08;99458.53;;;13.94;100.00
7376;BME280;3728;42.266;24.944;2023-03-22T09:28:36;99451.66;;;13.81;100.00
7376;BME280;3728;42.266;24.944;2023-03-22T09:31:08;99448.25;;;14.01;100.00
7376;BME280;3728;42.266;24.944;2023-03-22T09:33:39;99456.81;;;14.31;100.00
7376;BME280;3728;42.266;24.944;2023-03-22T09:36:10;99453.28;;;14.72;99.32
7376;BME280;3728;42.266;24.944;2023-03-22T09:38:39;99448.28;;;14.58;100.00
7376;BME280;3728;42.266;24.944;2023-03-22T09:41:16;99450.19;;;14.58;100.00
7376;BME280;3728;42.266;24.944;2023-03-22T09:43:54;99448.00;;;14.72;100.00
7376;BME280;3728;42.266;24.944;2023-03-22T09:46:31;99446.88;;;14.61;100.00
7376;BME280;3728;42.266;24.944;2023-03-22T09:49:06;99456.78;;;14.64;100.00
7376;BME280;3728;42.266;24.944;2023-03-22T09:51:40;99463.66;;;14.56;100.00
7376;BME280;3728;42.266;24.944;2023-03-22T09:54:31;99457.78;;;14.71;98.37
7376;BME280;3728;42.266;24.944;2023-03-22T10:02:52;99469.97;;;14.88;99.51
7376;BME280;3728;42.266;24.944;2023-03-22T10:05:30;99477.13;;;14.99;96.03
7376;BME280;3728;42.266;24.944;2023-03-22T10:08:25;99466.69;;;15.15;96.45
7376;BME280;3728;42.266;24.944;2023-03-22T10:11:00;99462.69;;;15.57;93.29
7376;BME280;3728;42.266;24.944;2023-03-22T10:13:44;99459.94;;;15.66;90.84
7376;BME280;3728;42.266;24.944;2023-03-22T10:16:29;99454.56;;;15.50;89.44
7376;BME280;3728;42.266;24.944;2023-03-22T10:19:29;99461.38;;;15.63;92.10
7376;BME280;3728;42.266;24.944;2023-03-22T10:22:01;99454.41;;;15.71;89.40
7376;BME280;3728;42.266;24.944;2023-03-22T10:24:34;99463.06;;;16.11;87.19
7376;BME280;3728;42.266;24.944;2023-03-22T10:27:12;99450.28;;;15.58;89.94
7376;BME280;3728;42.266;24.944;2023-03-22T10:30:01;99459.09;;;15.90;89.73
7376;BME280;3728;42.266;24.944;2023-03-22T10:32:45;99456.91;;;15.80;87.57
7376;BME280;3728;42.266;24.944;2023-03-22T10:35:24;99451.53;;;15.76;85.84
7376;BME280;3728;42.266;24.944;2023-03-22T10:37:57;99451.69;;;15.95;85.27
7376;BME280;3728;42.266;24.944;2023-03-22T10:40:33;99462.94;;;16.35;87.17
7376;BME280;3728;42.266;24.944;2023-03-22T10:43:10;99449.31;;;16.33;83.51
7376;BME280;3728;42.266;24.944;2023-03-22T10:46:02;99451.50;;;16.59;79.04
7376;BME280;3728;42.266;24.944;2023-03-22T10:48:35;99445.88;;;16.76;79.38
7376;BME280;3728;42.266;24.944;2023-03-22T10:51:10;99445.28;;;16.83;80.53
7376;BME280;3728;42.266;24.944;2023-03-22T10:53:53;99448.16;;;16.93;79.52
7376;BME280;3728;42.266;24.944;2023-03-22T10:56:23;99444.97;;;17.03;79.21
7376;BME280;3728;42.266;24.944;2023-03-22T10:58:54;99436.84;;;17.28;79.21
7376;BME280;3728;42.266;24.944;2023-03-22T11:02:01;99445.00;;;17.38;77.79
7376;BME280;3728;42.266;24.944;2023-03-22T11:04:29;99441.88;;;17.33;77.36
7376;BME280;3728;42.266;24.944;2023-03-22T11:06:57;99434.28;;;17.16;75.13
7376;BME280;3728;42.266;24.944;2023-03-22T11:09:24;99434.56;;;17.10;74.67
7376;BME280;3728;42.266;24.944;2023-03-22T11:11:56;99433.56;;;16.99;73.91
7376;BME280;3728;42.266;24.944;2023-03-22T11:14:31;99431.44;;;16.89;75.38
7376;BME280;3728;42.266;24.944;2023-03-22T11:19:51;99429.41;;;16.83;74.23
7376;BME280;3728;42.266;24.944;2023-03-22T11:22:38;99425.81;;;16.60;72.81
7376;BME280;3728;42.266;24.944;2023-03-22T11:25:22;99416.88;;;16.21;75.20
7376;BME280;3728;42.266;24.944;2023-03-22T11:27:55;99417.59;;;16.18;76.98
7376;BME280;3728;42.266;24.944;2023-03-22T11:33:18;99412.50;;;15.97;76.98
7376;BME280;3728;42.266;24.944;2023-03-22T11:35:53;99408.63;;;15.79;78.45
7376;BME280;3728;42.266;24.944;2023-03-22T11:41:13;99420.47;;;16.28;76.50
7376;BME280;3728;42.266;24.944;2023-03-22T11:44:17;99417.31;;;15.80;75.23
7376;BME280;3728;42.266;24.944;2023-03-22T11:46:49;99414.94;;;15.90;78.74
7376;BME280;3728;42.266;24.944;2023-03-22T11:49:26;99408.94;;;15.50;81.20
7376;BME280;3728;42.266;24.944;2023-03-22T11:52:34;99412.88;;;15.56;81.93
7376;BME280;3728;42.266;24.944;2023-03-22T11:55:03;99402.72;;;15.18;82.02
7376;BME280;3728;42.266;24.944;2023-03-22T11:57:33;99400.69;;;15.39;81.17
7376;BME280;3728;42.266;24.944;2023-03-22T12:00:25;99411.13;;;15.36;81.04
7376;BME280;3728;42.266;24.944;2023-03-22T12:05:32;99418.91;;;15.04;85.76
7376;BME280;3728;42.266;24.944;2023-03-22T12:08:15;99415.25;;;14.85;88.37
7376;BME280;3728;42.266;24.944;2023-03-22T12:10:51;99417.00;;;15.05;89.13
7376;BME280;3728;42.266;24.944;2023-03-22T12:13:52;99414.50;;;14.84;86.89
7376;BME280;3728;42.266;24.944;2023-03-22T12:16:30;99415.03;;;15.14;87.29
7376;BME280;3728;42.266;24.944;2023-03-22T12:21:31;99421.53;;;14.68;92.33
7376;BME280;3728;42.266;24.944;2023-03-22T12:24:01;99416.69;;;14.70;93.88
7376;BME280;3728;42.266;24.944;2023-03-22T12:26:31;99414.28;;;14.77;91.42
7376;BME280;3728;42.266;24.944;2023-03-22T12:29:04;99413.06;;;14.75;92.42
7376;BME280;3728;42.266;24.944;2023-03-22T12:31:38;99407.78;;;14.87;89.20
7376;BME280;3728;42.266;24.944;2023-03-22T12:34:14;99414.50;;;14.96;88.31
7376;BME280;3728;42.266;24.944;2023-03-22T12:36:50;99409.66;;;14.86;89.38
7376;BME280;3728;42.266;24.944;2023-03-22T12:39:30;99416.13;;;15.13;90.01
7376;BME280;3728;42.266;24.944;2023-03-22T12:42:36;99424.47;;;15.03;94.96
7376;BME280;3728;42.266;24.944;2023-03-22T12:45:22;99434.06;;;14.95;95.89
7376;BME280;3728;42.266;24.944;2023-03-22T12:48:19;99436.56;;;14.68;99.74
7376;BME280;3728;42.266;24.944;2023-03-22T12:50:59;99437.09;;;14.49;100.00
7376;BME280;3728;42.266;24.944;2023-03-22T12:53:57;99428.44;;;14.61;100.00
7376;BME280;3728;42.266;24.944;2023-03-22T12:56:38;99423.59;;;14.51;100.00
7376;BME280;3728;42.266;24.944;2023-03-22T12:59:14;99421.19;;;14.58;100.00
7376;BME280;3728;42.266;24.944;2023-03-22T13:02:14;99426.53;;;14.49;100.00
7376;BME280;3728;42.266;24.944;2023-03-22T13:04:53;99417.19;;;14.39;100.00
7376;BME280;3728;42.266;24.944;2023-03-22T13:07:41;99423.81;;;14.46;100.00
7376;BME280;3728;42.266;24.944;2023-03-22T13:21:22;99413.72;;;14.48;100.00
7376;BME280;3728;42.266;24.944;2023-03-22T13:26:44;99406.88;;;14.47;100.00
7376;BME280;3728;42.266;24.944;2023-03-22T13:29:32;99410.94;;;14.44;100.00
7376;BME280;3728;42.266;24.944;2023-03-22T13:32:28;99414.91;;;14.50;99.72
7376;BME280;3728;42.266;24.944;2023-03-22T13:34:58;99415.69;;;14.51;98.49
7376;BME280;3728;42.266;24.944;2023-03-22T13:37:46;99415.91;;;14.46;98.39
7376;BME280;3728;42.266;24.944;2023-03-22T13:40:34;99414.47;;;14.48;97.65
7376;BME280;3728;42.266;24.944;2023-03-22T13:43:27;99409.97;;;14.61;98.26
7376;BME280;3728;42.266;24.944;2023-03-22T13:56:45;99409.31;;;14.52;100.00
7376;BME280;3728;42.266;24.944;2023-03-22T14:04:52;99402.72;;;14.82;97.69
7376;BME280;3728;42.266;24.944;2023-03-22T14:07:41;99402.94;;;15.01;91.61
7376;BME280;3728;42.266;24.944;2023-03-22T14:10:54;99406.16;;;14.94;93.41
7376;BME280;3728;42.266;24.944;2023-03-22T14:13:47;99403.94;;;14.84;92.86
7376;BME280;3728;42.266;24.944;2023-03-22T14:16:43;99407.91;;;14.78;96.31
7376;BME280;3728;42.266;24.944;2023-03-22T14:19:22;99413.31;;;15.58;89.17
7376;BME280;3728;42.266;24.944;2023-03-22T14:21:55;99407.22;;;15.18;90.27
7376;BME280;3728;42.266;24.944;2023-03-22T14:24:26;99406.03;;;15.03;92.95
7376;BME280;3728;42.266;24.944;2023-03-22T14:27:00;99410.75;;;14.97;93.15
7376;BME280;3728;42.266;24.944;2023-03-22T14:29:58;99409.88;;;14.69;94.42
7376;BME280;3728;42.266;24.944;2023-03-22T14:32:29;99412.75;;;14.64;95.08
7376;BME280;3728;42.266;24.944;2023-03-22T14:35:42;99414.59;;;14.76;95.09
7376;BME280;3728;42.266;24.944;2023-03-22T14:38:20;99412.94;;;14.59;95.28
7376;BME280;3728;42.266;24.944;2023-03-22T14:41:19;99416.66;;;14.58;96.19
7376;BME280;3728;42.266;24.944;2023-03-22T14:44:10;99418.69;;;14.28;98.95
7376;BME280;3728;42.266;24.944;2023-03-22T14:47:07;99410.75;;;14.16;100.00
7376;BME280;3728;42.266;24.944;2023-03-22T14:49:41;99420.59;;;14.07;100.00
7376;BME280;3728;42.266;24.944;2023-03-22T14:52:19;99423.88;;;14.04;100.00
7376;BME280;3728;42.266;24.944;2023-03-22T14:54:55;99419.72;;;14.03;100.00
7376;BME280;3728;42.266;24.944;2023-03-22T14:58:00;99419.19;;;14.10;100.00
7376;BME280;3728;42.266;24.944;2023-03-22T15:00:39;99419.81;;;14.39;98.67
7376;BME280;3728;42.266;24.944;2023-03-22T15:03:13;99422.25;;;14.45;97.39
7376;BME280;3728;42.266;24.944;2023-03-22T15:06:00;99423.25;;;14.40;98.93
7376;BME280;3728;42.266;24.944;2023-03-22T15:08:31;99416.59;;;14.22;100.00
7376;BME280;3728;42.266;24.944;2023-03-22T15:10:59;99427.00;;;14.18;100.00
7376;BME280;3728;42.266;24.944;2023-03-22T15:13:32;99423.59;;;14.18;100.00
7376;BME280;3728;42.266;24.944;2023-03-22T15:16:02;99436.00;;;14.17;100.00
7376;BME280;3728;42.266;24.944;2023-03-22T15:18:31;99427.19;;;14.13;100.00